createdAt,value
2022-09-22T00:00:40.379Z,23.57
2022-09-22T00:02:40.424Z,23.55
2022-09-22T00:04:40.434Z,23.57
2022-09-22T00:06:40.349Z,23.56
2022-09-22T00:08:40.417Z,23.65
2022-09-22T00:10:40.423Z,23.63
2022-09-22T00:12:40.342Z,23.56
2022-09-22T00:14:40.418Z,23.55
2022-09-22T00:16:40.483Z,23.59
2022-09-22T00:18:40.434Z,23.59
2022-09-22T00:20:40.442Z,23.49
2022-09-22T00:22:40.421Z,23.50
2022-09-22T00:24:40.447Z,23.48
2022-09-22T00:26:40.440Z,23.50
2022-09-22T00:28:40.497Z,23.50
2022-09-22T00:30:40.446Z,23.41
2022-09-22T00:32:40.454Z,23.30
2022-09-22T00:34:40.290Z,23.16
2022-09-22T00:36:40.495Z,23.43
2022-09-22T00:38:40.441Z,23.44
2022-09-22T00:40:40.508Z,23.51
2022-09-22T00:42:40.375Z,23.53
2022-09-22T00:44:40.466Z,23.52
2022-09-22T00:46:40.571Z,23.63
2022-09-22T00:48:40.402Z,23.54
2022-09-22T00:50:40.458Z,23.55
2022-09-22T00:52:40.427Z,23.53
2022-09-22T00:54:40.466Z,23.53
2022-09-22T00:56:40.463Z,23.58
2022-09-22T00:58:40.420Z,23.50
2022-09-22T01:00:40.553Z,23.45
2022-09-22T01:02:40.458Z,23.54
2022-09-22T01:04:40.400Z,23.51
2022-09-22T01:06:40.384Z,23.54
2022-09-22T01:08:40.483Z,23.53
2022-09-22T01:10:40.498Z,23.53
2022-09-22T01:12:40.433Z,23.52
2022-09-22T01:14:40.487Z,23.54
2022-09-22T01:16:40.441Z,23.51
2022-09-22T01:18:40.447Z,23.61
2022-09-22T01:20:40.476Z,23.53
2022-09-22T01:22:40.516Z,23.53
2022-09-22T01:24:40.512Z,23.52
2022-09-22T01:26:40.474Z,23.54
2022-09-22T01:28:40.338Z,23.49
2022-09-22T01:30:40.482Z,23.49
2022-09-22T01:32:40.478Z,23.53
2022-09-22T01:34:40.532Z,23.53
2022-09-22T01:36:40.359Z,23.47
2022-09-22T01:38:40.489Z,23.42
2022-09-22T01:40:40.568Z,23.48
2022-09-22T01:42:40.500Z,23.49
2022-09-22T01:44:40.515Z,23.53
2022-09-22T01:46:40.599Z,23.49
2022-09-22T01:48:40.542Z,23.45
2022-09-22T01:50:40.423Z,23.51
2022-09-22T01:52:40.480Z,23.53
2022-09-22T01:54:40.470Z,23.48
2022-09-22T01:56:40.535Z,23.42
2022-09-22T01:58:40.515Z,23.26
2022-09-22T02:00:40.556Z,23.45
2022-09-22T02:02:40.608Z,23.44
2022-09-22T02:04:40.396Z,23.52
2022-09-22T02:06:40.520Z,23.43
2022-09-22T02:08:40.558Z,23.41
2022-09-22T02:10:40.409Z,23.53
2022-09-22T02:12:40.596Z,23.48
2022-09-22T02:14:40.563Z,23.43
2022-09-22T02:16:40.555Z,23.45
2022-09-22T02:18:40.549Z,23.44
2022-09-22T02:20:40.609Z,23.43
2022-09-22T02:22:40.554Z,23.42
2022-09-22T02:24:40.577Z,23.44
2022-09-22T02:26:40.637Z,23.45
2022-09-22T02:28:40.491Z,23.43
2022-09-22T02:30:40.623Z,23.45
2022-09-22T02:32:40.455Z,23.49
2022-09-22T02:34:40.438Z,23.51
2022-09-22T02:36:40.577Z,23.50
2022-09-22T02:38:40.412Z,23.41
2022-09-22T02:40:40.674Z,23.40
2022-09-22T02:42:40.587Z,23.34
2022-09-22T02:44:40.587Z,23.31
2022-09-22T02:46:40.618Z,23.26
2022-09-22T02:48:40.566Z,23.17
2022-09-22T02:50:40.614Z,23.34
2022-09-22T02:52:40.527Z,23.45
2022-09-22T02:54:40.440Z,23.44
2022-09-22T02:56:40.562Z,23.44
2022-09-22T02:58:40.594Z,23.51
2022-09-22T03:00:40.591Z,23.44
2022-09-22T03:02:40.619Z,23.43
2022-09-22T03:04:40.668Z,23.44
2022-09-22T03:06:40.560Z,23.52
2022-09-22T03:08:40.585Z,23.49
2022-09-22T03:10:40.569Z,23.40
2022-09-22T03:12:56.717Z,23.44
2022-09-22T03:14:40.648Z,23.42
2022-09-22T03:16:40.604Z,23.45
2022-09-22T03:18:40.473Z,23.44
2022-09-22T03:20:40.538Z,23.42
2022-09-22T03:22:40.587Z,23.43
2022-09-22T03:24:40.531Z,23.42
2022-09-22T03:26:40.546Z,23.48
2022-09-22T03:28:40.635Z,23.44
2022-09-22T03:30:40.773Z,23.37
2022-09-22T03:32:40.719Z,23.43
2022-09-22T03:34:40.666Z,23.39
2022-09-22T03:36:40.563Z,23.40
2022-09-22T03:38:40.592Z,23.51
2022-09-22T03:40:40.702Z,23.41
2022-09-22T03:42:40.563Z,23.39
2022-09-22T03:44:40.535Z,23.40
2022-09-22T03:46:40.584Z,23.39
2022-09-22T03:48:44.773Z,23.40
2022-09-22T03:50:40.651Z,23.47
2022-09-22T03:52:40.566Z,23.47
2022-09-22T03:54:40.723Z,23.42
2022-09-22T03:56:40.675Z,23.37
2022-09-22T03:58:40.548Z,23.17
2022-09-22T04:00:40.631Z,23.14
2022-09-22T04:02:40.722Z,23.15
2022-09-22T04:04:40.543Z,23.08
2022-09-22T04:06:40.673Z,23.13
2022-09-22T04:08:40.628Z,23.13
2022-09-22T04:10:40.695Z,23.25
2022-09-22T04:12:40.587Z,23.23
2022-09-22T04:14:40.676Z,23.10
2022-09-22T04:16:40.761Z,23.11
2022-09-22T04:18:40.569Z,23.08
2022-09-22T04:20:43.389Z,23.08
2022-09-22T04:22:40.667Z,23.11
2022-09-22T04:24:40.620Z,23.10
2022-09-22T04:26:51.761Z,23.08
2022-09-22T04:28:40.726Z,23.16
2022-09-22T04:30:40.721Z,23.25
2022-09-22T04:32:40.691Z,23.39
2022-09-22T04:34:40.616Z,23.33
2022-09-22T04:36:40.667Z,23.34
2022-09-22T04:38:40.712Z,23.28
2022-09-22T04:40:40.612Z,23.34
2022-09-22T04:42:40.717Z,23.31
2022-09-22T04:44:40.624Z,23.34
2022-09-22T04:46:40.559Z,23.33
2022-09-22T04:48:40.671Z,23.34
2022-09-22T04:50:44.475Z,23.31
2022-09-22T04:52:40.698Z,23.27
2022-09-22T04:54:40.756Z,23.26
2022-09-22T04:56:40.663Z,23.27
2022-09-22T04:58:40.699Z,23.27
2022-09-22T05:00:40.751Z,23.25
2022-09-22T05:02:40.768Z,23.26
2022-09-22T05:04:40.731Z,23.25
2022-09-22T05:06:40.620Z,23.25
2022-09-22T05:08:40.775Z,23.17
2022-09-22T05:10:40.857Z,23.11
2022-09-22T05:12:40.593Z,23.03
2022-09-22T05:14:40.745Z,22.95
2022-09-22T05:16:40.897Z,23.03
2022-09-22T05:18:40.795Z,22.88
2022-09-22T05:20:40.760Z,23.27
2022-09-22T05:22:40.774Z,23.30
2022-09-22T05:24:40.743Z,23.27
2022-09-22T05:26:40.650Z,23.38
2022-09-22T05:28:40.627Z,23.36
2022-09-22T05:30:40.688Z,23.25
2022-09-22T05:32:40.721Z,23.13
2022-09-22T05:34:40.761Z,23.34
2022-09-22T05:36:40.814Z,23.34
2022-09-22T05:38:40.739Z,23.36
2022-09-22T05:40:40.709Z,23.27
2022-09-22T05:42:40.792Z,23.27
2022-09-22T05:44:40.621Z,23.28
2022-09-22T05:46:40.642Z,23.27
2022-09-22T05:48:40.781Z,23.25
2022-09-22T05:50:40.805Z,23.29
2022-09-22T05:52:40.804Z,23.25
2022-09-22T05:54:40.757Z,23.23
2022-09-22T05:56:40.785Z,23.23
2022-09-22T05:58:40.813Z,23.25
2022-09-22T06:00:40.816Z,23.26
2022-09-22T06:02:40.855Z,23.27
2022-09-22T06:04:40.795Z,23.27
2022-09-22T06:06:40.830Z,23.26
2022-09-22T06:08:43.979Z,23.26
2022-09-22T06:10:40.820Z,23.23
2022-09-22T06:12:40.818Z,23.24
2022-09-22T06:14:40.776Z,23.25
2022-09-22T06:16:40.985Z,23.11
2022-09-22T06:18:40.805Z,23.38
2022-09-22T06:20:40.841Z,23.38
2022-09-22T06:22:40.803Z,23.40
2022-09-22T06:24:40.738Z,23.43
2022-09-22T06:26:40.834Z,23.38
2022-09-22T06:28:40.830Z,23.40
2022-09-22T06:30:40.764Z,23.34
2022-09-22T06:32:40.795Z,23.44
2022-09-22T06:34:40.721Z,23.39
2022-09-22T06:36:40.777Z,23.49
2022-09-22T06:38:40.886Z,23.44
2022-09-22T06:40:40.834Z,23.43
2022-09-22T06:42:40.829Z,23.42
2022-09-22T06:44:40.864Z,23.49
2022-09-22T06:46:40.806Z,23.43
2022-09-22T06:48:40.805Z,23.40
2022-09-22T06:50:41.023Z,23.40
2022-09-22T06:52:40.779Z,23.41
2022-09-22T06:54:40.890Z,23.41
2022-09-22T06:56:40.807Z,23.44
2022-09-22T06:59:05.581Z,23.43
2022-09-22T07:00:40.977Z,23.38
2022-09-22T07:02:40.895Z,23.41
2022-09-22T07:04:40.777Z,23.40
2022-09-22T07:06:40.838Z,23.39
2022-09-22T07:08:40.717Z,23.44
2022-09-22T07:10:40.905Z,23.44
2022-09-22T07:12:40.884Z,23.43
2022-09-22T07:14:40.835Z,23.40
2022-09-22T07:16:41.104Z,23.38
2022-09-22T07:18:40.881Z,23.39
2022-09-22T07:20:40.902Z,23.39
2022-09-22T07:22:40.813Z,23.50
2022-09-22T07:24:40.888Z,23.56
2022-09-22T07:26:40.862Z,23.40
2022-09-22T07:28:40.814Z,23.50
2022-09-22T07:30:40.918Z,23.64
2022-09-22T07:32:40.785Z,23.55
2022-09-22T07:34:40.842Z,23.63
2022-09-22T07:36:40.908Z,23.65
2022-09-22T07:38:40.954Z,23.63
2022-09-22T07:40:40.952Z,23.61
2022-09-22T07:42:40.841Z,23.68
2022-09-22T07:44:43.696Z,23.66
2022-09-22T07:46:41.039Z,23.66
2022-09-22T07:48:41.109Z,23.73
2022-09-22T07:50:40.867Z,23.81
2022-09-22T07:52:40.920Z,23.91
2022-09-22T07:54:40.888Z,24.23
2022-09-22T07:56:40.866Z,24.41
2022-09-22T07:58:40.949Z,24.50
2022-09-22T08:00:40.969Z,24.41
2022-09-22T08:02:40.908Z,24.67
2022-09-22T08:04:40.915Z,24.97
2022-09-22T08:06:40.902Z,25.10
2022-09-22T08:08:40.963Z,25.01
2022-09-22T08:10:40.831Z,25.05
2022-09-22T08:12:40.844Z,25.11
2022-09-22T08:14:40.995Z,25.22
2022-09-22T08:16:40.914Z,25.39
2022-09-22T08:18:40.949Z,25.46
2022-09-22T08:20:44.732Z,25.53
2022-09-22T08:22:40.948Z,25.56
2022-09-22T08:24:40.918Z,25.62
2022-09-22T08:26:43.701Z,25.65
2022-09-22T08:28:40.893Z,25.63
2022-09-22T08:30:40.897Z,25.75
2022-09-22T08:32:40.942Z,25.95
2022-09-22T08:34:40.994Z,26.03
2022-09-22T08:36:40.921Z,26.25
2022-09-22T08:38:40.957Z,26.41
2022-09-22T08:40:41.015Z,26.37
2022-09-22T08:42:41.014Z,26.31
2022-09-22T08:44:40.966Z,26.69
2022-09-22T08:46:41.115Z,26.78
2022-09-22T08:48:40.978Z,26.89
2022-09-22T08:50:40.990Z,26.49
2022-09-22T08:52:40.931Z,26.60
2022-09-22T08:54:41.002Z,27.31
2022-09-22T08:56:40.943Z,27.36
2022-09-22T08:58:41.007Z,27.58
2022-09-22T09:00:42.792Z,27.42
2022-09-22T09:02:41.051Z,27.51
2022-09-22T09:04:40.975Z,25.95
2022-09-22T09:06:41.005Z,27.62
2022-09-22T09:08:40.987Z,27.52
2022-09-22T09:10:40.975Z,27.24
2022-09-22T09:12:40.857Z,27.62
2022-09-22T09:14:41.028Z,25.78
2022-09-22T09:16:41.026Z,27.41
2022-09-22T09:18:41.027Z,27.47
2022-09-22T09:20:41.023Z,25.52
2022-09-22T09:22:43.783Z,27.63
2022-09-22T09:26:41.154Z,27.50
2022-09-22T09:28:41.030Z,27.51
2022-09-22T09:30:41.031Z,25.56
2022-09-22T09:32:41.090Z,27.79
2022-09-22T09:34:41.032Z,27.81
2022-09-22T09:36:41.105Z,25.83
2022-09-22T09:38:41.011Z,27.86
2022-09-22T09:40:41.125Z,27.67
2022-09-22T09:42:40.953Z,27.78
2022-09-22T09:44:41.018Z,27.84
2022-09-22T09:46:41.043Z,26.79
2022-09-22T09:48:41.072Z,27.94
2022-09-22T09:50:41.100Z,25.88
2022-09-22T09:52:41.061Z,25.79
2022-09-22T09:54:41.057Z,25.80
2022-09-22T09:56:40.932Z,27.78
2022-09-22T09:58:40.956Z,27.78
2022-09-22T10:00:41.075Z,27.84
2022-09-22T10:02:40.922Z,25.83
2022-09-22T10:04:41.151Z,25.77
2022-09-22T10:06:41.040Z,25.77
2022-09-22T10:08:41.061Z,25.75
2022-09-22T10:10:41.122Z,25.82
2022-09-22T10:12:41.064Z,27.94
2022-09-22T10:14:41.056Z,27.85
2022-09-22T10:16:41.066Z,25.90
2022-09-22T10:18:40.948Z,25.86
2022-09-22T10:20:41.087Z,25.95
2022-09-22T10:22:41.020Z,25.80
2022-09-22T10:24:41.082Z,25.79
2022-09-22T10:26:41.123Z,27.62
2022-09-22T10:28:41.094Z,27.78
2022-09-22T10:30:41.225Z,26.53
2022-09-22T10:32:41.087Z,25.86
2022-09-22T10:34:41.187Z,25.97
2022-09-22T10:36:41.178Z,26.10
2022-09-22T10:38:41.093Z,26.14
2022-09-22T10:40:41.145Z,27.94
2022-09-22T10:42:41.020Z,27.92
2022-09-22T10:44:43.990Z,27.86
2022-09-22T10:46:41.125Z,25.99
2022-09-22T10:48:41.150Z,25.90
2022-09-22T10:50:41.151Z,26.07
2022-09-22T10:52:41.168Z,25.96
2022-09-22T10:54:41.127Z,27.91
2022-09-22T10:56:41.048Z,28.04
2022-09-22T10:58:41.172Z,27.94
2022-09-22T11:00:41.130Z,26.03
2022-09-22T11:02:41.042Z,26.06
2022-09-22T11:04:41.087Z,26.08
2022-09-22T11:06:41.121Z,26.09
2022-09-22T11:08:41.080Z,27.83
2022-09-22T11:10:41.273Z,27.69
2022-09-22T11:12:41.137Z,27.66
2022-09-22T11:14:41.167Z,26.14
2022-09-22T11:16:41.168Z,26.18
2022-09-22T11:18:41.218Z,26.18
2022-09-22T11:20:41.171Z,26.22
2022-09-22T11:22:41.194Z,27.78
2022-09-22T11:24:41.231Z,27.75
2022-09-22T11:26:41.096Z,27.52
2022-09-22T11:28:41.174Z,25.95
2022-09-22T11:30:41.255Z,26.09
2022-09-22T11:32:41.156Z,25.92
2022-09-22T11:34:41.339Z,25.85
2022-09-22T11:36:41.192Z,25.82
2022-09-22T11:38:41.070Z,27.59
2022-09-22T11:40:41.451Z,25.64
2022-09-22T11:42:41.168Z,25.65
2022-09-22T11:44:41.231Z,25.85
2022-09-22T11:46:41.124Z,26.11
2022-09-22T11:48:41.231Z,26.14
2022-09-22T11:50:41.395Z,26.06
2022-09-22T11:52:41.037Z,26.28
2022-09-22T11:54:41.155Z,25.92
2022-09-22T11:56:41.139Z,26.22
2022-09-22T11:58:41.282Z,26.19
2022-09-22T12:00:41.269Z,26.36
2022-09-22T12:02:41.293Z,26.22
2022-09-22T12:04:41.220Z,26.12
2022-09-22T12:06:41.106Z,26.18
2022-09-22T12:08:41.154Z,26.06
2022-09-22T12:10:41.216Z,27.83
2022-09-22T12:12:41.129Z,27.90
2022-09-22T12:14:41.206Z,27.22
2022-09-22T12:16:41.153Z,26.06
2022-09-22T12:18:41.145Z,25.98
2022-09-22T12:20:41.273Z,26.08
2022-09-22T12:22:41.272Z,27.60
2022-09-22T12:24:41.176Z,27.88
2022-09-22T12:26:41.147Z,27.05
2022-09-22T12:28:41.303Z,27.22
2022-09-22T12:30:41.309Z,26.10
2022-09-22T12:32:41.257Z,26.24
2022-09-22T12:34:41.248Z,25.80
2022-09-22T12:36:41.293Z,25.88
2022-09-22T12:38:41.366Z,25.85
2022-09-22T12:40:41.263Z,25.97
2022-09-22T12:42:41.193Z,26.11
2022-09-22T12:44:41.320Z,26.06
2022-09-22T12:46:41.234Z,26.07
2022-09-22T12:48:41.280Z,26.21
2022-09-22T12:50:41.284Z,26.23
2022-09-22T12:52:41.308Z,26.13
2022-09-22T12:54:41.285Z,26.06
2022-09-22T12:56:41.104Z,26.23
2022-09-22T12:58:41.259Z,26.08
2022-09-22T13:00:41.230Z,26.32
2022-09-22T13:02:41.333Z,25.84
2022-09-22T13:04:41.299Z,27.75
2022-09-22T13:06:41.282Z,27.78
2022-09-22T13:08:41.306Z,26.08
2022-09-22T13:10:41.268Z,26.09
2022-09-22T13:12:41.290Z,26.08
2022-09-22T13:14:41.187Z,26.03
2022-09-22T13:16:41.316Z,26.03
2022-09-22T13:18:41.279Z,25.99
2022-09-22T13:20:41.351Z,25.83
2022-09-22T13:22:41.318Z,25.88
2022-09-22T13:24:41.255Z,25.80
2022-09-22T13:26:41.290Z,25.99
2022-09-22T13:28:41.108Z,25.78
2022-09-22T13:30:41.300Z,25.84
2022-09-22T13:32:41.322Z,25.85
2022-09-22T13:34:41.283Z,26.22
2022-09-22T13:36:41.241Z,25.80
2022-09-22T13:38:41.329Z,25.82
2022-09-22T13:40:41.313Z,25.60
2022-09-22T13:42:41.251Z,25.84
2022-09-22T13:44:41.211Z,26.22
2022-09-22T13:46:41.368Z,26.08
2022-09-22T13:48:41.245Z,26.21
2022-09-22T13:50:41.274Z,27.94
2022-09-22T13:52:41.169Z,27.81
2022-09-22T13:54:41.346Z,26.96
2022-09-22T13:56:41.273Z,25.97
2022-09-22T13:58:41.286Z,25.96
2022-09-22T14:00:55.215Z,25.88
2022-09-22T14:02:41.516Z,25.95
2022-09-22T14:04:41.294Z,25.88
2022-09-22T14:06:41.359Z,27.88
2022-09-22T14:08:41.271Z,27.83
2022-09-22T14:10:41.301Z,24.96
2022-09-22T14:12:41.394Z,26.30
2022-09-22T14:14:41.296Z,25.99
2022-09-22T14:16:41.372Z,26.24
2022-09-22T14:18:41.315Z,25.76
2022-09-22T14:20:41.367Z,26.09
2022-09-22T14:22:41.330Z,26.08
2022-09-22T14:24:41.359Z,25.84
2022-09-22T14:26:41.609Z,26.07
2022-09-22T14:28:41.362Z,25.97
2022-09-22T14:30:41.471Z,25.81
2022-09-22T14:32:41.300Z,26.23
2022-09-22T14:34:41.280Z,25.99
2022-09-22T14:36:41.265Z,26.07
2022-09-22T14:38:45.875Z,24.76
2022-09-22T14:40:41.390Z,25.36
2022-09-22T14:42:41.221Z,28.19
2022-09-22T14:44:41.368Z,25.92
2022-09-22T14:46:41.408Z,26.18
2022-09-22T14:48:41.326Z,26.08
2022-09-22T14:50:41.400Z,25.90
2022-09-22T14:52:41.384Z,25.96
2022-09-22T14:54:41.407Z,25.92
2022-09-22T14:56:41.390Z,25.63
2022-09-22T14:58:41.274Z,25.77
2022-09-22T15:00:41.577Z,26.17
2022-09-22T15:02:41.539Z,25.84
2022-09-22T15:04:41.482Z,25.65
2022-09-22T15:06:41.208Z,26.00
2022-09-22T15:08:41.115Z,25.92
2022-09-22T15:10:41.213Z,26.07
2022-09-22T15:12:41.187Z,25.60
2022-09-22T15:14:41.093Z,25.78
2022-09-22T15:16:41.222Z,24.48
2022-09-22T15:18:41.161Z,24.39
2022-09-22T15:20:41.187Z,24.41
2022-09-22T15:22:41.081Z,24.71
2022-09-22T15:24:41.235Z,24.71
2022-09-22T15:26:41.189Z,24.82
2022-09-22T15:28:41.265Z,24.70
2022-09-22T15:30:41.238Z,24.87
2022-09-22T15:32:45.129Z,24.95
2022-09-22T15:34:41.240Z,24.89
2022-09-22T15:36:41.254Z,24.62
2022-09-22T15:38:41.265Z,24.50
2022-09-22T15:40:41.393Z,24.38
2022-09-22T15:42:51.975Z,24.74
2022-09-22T15:44:41.438Z,24.76
2022-09-22T15:46:41.451Z,24.80
2022-09-22T15:48:41.448Z,24.75
2022-09-22T15:50:41.469Z,24.75
2022-09-22T15:52:41.445Z,24.80
2022-09-22T15:54:41.385Z,24.86
2022-09-22T15:56:41.495Z,24.83
2022-09-22T15:58:41.494Z,24.75
2022-09-22T16:00:41.502Z,24.40
2022-09-22T16:02:41.591Z,24.38
2022-09-22T16:04:41.454Z,24.52
2022-09-22T16:06:41.307Z,24.68
2022-09-22T16:08:41.382Z,24.66
2022-09-22T16:10:41.455Z,24.66
2022-09-22T16:12:41.523Z,24.71
2022-09-22T16:14:41.452Z,24.64
2022-09-22T16:16:41.612Z,24.66
2022-09-22T16:18:41.479Z,24.60
2022-09-22T16:20:41.517Z,24.64
2022-09-22T16:22:41.395Z,24.62
2022-09-22T16:24:41.509Z,24.61
2022-09-22T16:26:41.511Z,24.59
2022-09-22T16:28:41.487Z,24.61
2022-09-22T16:30:41.400Z,24.58
2022-09-22T16:32:41.532Z,24.58
2022-09-22T16:34:41.481Z,24.34
2022-09-22T16:36:41.532Z,24.24
2022-09-22T16:38:41.564Z,24.52
2022-09-22T16:40:41.581Z,24.55
2022-09-22T16:42:41.472Z,24.62
2022-09-22T16:44:41.528Z,24.51
2022-09-22T16:46:41.544Z,24.52
2022-09-22T16:48:41.649Z,24.50
2022-09-22T16:50:41.524Z,24.30
2022-09-22T16:52:41.548Z,24.46
2022-09-22T16:54:41.880Z,24.46
2022-09-22T16:56:41.539Z,24.43
2022-09-22T16:58:41.542Z,24.40
2022-09-22T17:00:41.610Z,24.43
2022-09-22T17:02:41.576Z,24.43
2022-09-22T17:04:41.514Z,24.47
2022-09-22T17:06:41.562Z,24.37
2022-09-22T17:08:41.559Z,24.35
2022-09-22T17:10:41.465Z,24.38
2022-09-22T17:12:41.446Z,24.27
2022-09-22T17:14:41.498Z,24.32
2022-09-22T17:16:41.591Z,24.21
2022-09-22T17:18:41.539Z,24.32
2022-09-22T17:20:41.565Z,24.20
2022-09-22T17:22:41.513Z,24.28
2022-09-22T17:24:41.603Z,24.11
2022-09-22T17:26:41.638Z,24.24
2022-09-22T17:28:41.446Z,24.30
2022-09-22T17:30:41.571Z,24.25
2022-09-22T17:32:41.593Z,24.33
2022-09-22T17:34:41.862Z,24.32
2022-09-22T17:36:41.623Z,24.30
2022-09-22T17:38:41.586Z,24.34
2022-09-22T17:40:41.637Z,24.29
2022-09-22T17:42:41.516Z,24.35
2022-09-22T17:44:41.618Z,24.37
2022-09-22T17:46:41.607Z,24.30
2022-09-22T17:48:41.513Z,24.30
2022-09-22T17:50:41.603Z,24.29
2022-09-22T17:52:41.621Z,24.04
2022-09-22T17:54:41.630Z,24.01
2022-09-22T17:56:41.501Z,24.10
2022-09-22T17:58:41.649Z,23.87
2022-09-22T18:00:41.475Z,24.20
2022-09-22T18:02:41.614Z,24.27
2022-09-22T18:04:41.801Z,24.29
2022-09-22T18:06:41.524Z,24.26
2022-09-22T18:08:41.479Z,24.27
2022-09-22T18:10:41.631Z,24.30
2022-09-22T18:12:41.606Z,24.27
2022-09-22T18:14:41.619Z,24.24
2022-09-22T18:16:41.777Z,24.12
2022-09-22T18:18:41.886Z,24.30
2022-09-22T18:20:41.779Z,24.23
2022-09-22T18:22:41.768Z,24.14
2022-09-22T18:24:41.890Z,24.20
2022-09-22T18:26:41.481Z,24.20
2022-09-22T18:28:41.548Z,24.15
2022-09-22T18:30:41.750Z,24.15
2022-09-22T18:32:41.791Z,24.12
2022-09-22T18:34:41.685Z,24.11
2022-09-22T18:36:41.616Z,24.15
2022-09-22T18:38:41.703Z,23.87
2022-09-22T18:40:41.712Z,24.07
2022-09-22T18:42:41.671Z,24.10
2022-09-22T18:44:41.697Z,23.98
2022-09-22T18:46:41.730Z,24.01
2022-09-22T18:48:41.826Z,24.05
2022-09-22T18:50:41.689Z,24.05
2022-09-22T18:52:41.909Z,24.02
2022-09-22T18:54:41.669Z,24.12
2022-09-22T18:56:41.672Z,24.10
2022-09-22T18:58:41.718Z,24.00
2022-09-22T19:00:41.667Z,23.94
2022-09-22T19:02:41.760Z,23.96
2022-09-22T19:04:41.663Z,23.70
2022-09-22T19:06:41.625Z,24.08
2022-09-22T19:08:41.577Z,24.07
2022-09-22T19:10:41.749Z,24.10
2022-09-22T19:12:41.606Z,23.81
2022-09-22T19:14:41.582Z,23.94
2022-09-22T19:16:41.776Z,24.04
2022-09-22T19:18:41.670Z,23.91
2022-09-22T19:20:41.575Z,24.09
2022-09-22T19:22:41.677Z,24.18
2022-09-22T19:24:41.697Z,24.11
2022-09-22T19:26:41.603Z,24.11
2022-09-22T19:28:41.686Z,24.12
2022-09-22T19:30:41.700Z,24.10
2022-09-22T19:32:41.762Z,24.11
2022-09-22T19:34:41.614Z,24.11
2022-09-22T19:36:41.686Z,24.10
2022-09-22T19:38:41.708Z,24.12
2022-09-22T19:40:41.805Z,24.06
2022-09-22T19:42:41.628Z,24.11
2022-09-22T19:44:41.688Z,24.05
2022-09-22T19:46:41.787Z,24.07
2022-09-22T19:48:41.711Z,24.02
2022-09-22T19:50:41.682Z,24.04
2022-09-22T19:52:41.818Z,24.08
2022-09-22T19:54:41.692Z,24.07
2022-09-22T19:56:41.755Z,24.08
2022-09-22T19:58:41.748Z,24.10
2022-09-22T20:00:41.727Z,24.01
2022-09-22T20:02:41.770Z,24.05
2022-09-22T20:04:41.671Z,24.10
2022-09-22T20:06:41.737Z,24.10
2022-09-22T20:08:41.807Z,24.04
2022-09-22T20:10:41.792Z,24.02
2022-09-22T20:12:41.790Z,23.96
2022-09-22T20:14:41.660Z,23.93
2022-09-22T20:16:45.898Z,23.93
2022-09-22T20:18:41.748Z,23.98
2022-09-22T20:20:41.744Z,23.98
2022-09-22T20:22:42.016Z,23.96
2022-09-22T20:24:41.758Z,23.97
2022-09-22T20:26:41.777Z,23.96
2022-09-22T20:28:41.815Z,23.97
2022-09-22T20:30:41.831Z,24.02
2022-09-22T20:32:41.775Z,23.83
2022-09-22T20:34:41.679Z,23.93
2022-09-22T20:36:41.634Z,23.96
2022-09-22T20:38:41.656Z,24.00
2022-09-22T20:40:41.833Z,23.94
2022-09-22T20:42:41.752Z,23.96
2022-09-22T20:44:41.735Z,23.84
2022-09-22T20:46:41.723Z,23.82
2022-09-22T20:48:41.781Z,23.82
2022-09-22T20:50:41.831Z,23.59
2022-09-22T20:52:41.783Z,23.88
2022-09-22T20:54:41.756Z,23.74
2022-09-22T20:56:42.949Z,23.73
2022-09-22T20:58:41.760Z,23.91
2022-09-22T21:00:42.075Z,23.84
2022-09-22T21:02:41.845Z,23.95
2022-09-22T21:04:41.696Z,23.94
2022-09-22T21:06:41.841Z,23.90
2022-09-22T21:08:41.772Z,23.79
2022-09-22T21:10:41.822Z,23.84
2022-09-22T21:12:41.787Z,23.81
2022-09-22T21:14:41.682Z,23.80
2022-09-22T21:16:41.830Z,23.69
2022-09-22T21:18:41.804Z,23.72
2022-09-22T21:20:41.845Z,23.63
2022-09-22T21:22:41.756Z,23.84
2022-09-22T21:24:41.852Z,23.91
2022-09-22T21:26:41.666Z,23.84
2022-09-22T21:28:41.809Z,23.95
2022-09-22T21:30:41.859Z,23.96
2022-09-22T21:32:41.834Z,23.88
2022-09-22T21:34:41.837Z,23.86
2022-09-22T21:36:41.744Z,23.84
2022-09-22T21:38:41.861Z,23.86
2022-09-22T21:40:41.854Z,23.82
2022-09-22T21:42:41.872Z,23.86
2022-09-22T21:44:41.755Z,23.75
2022-09-22T21:46:42.055Z,23.56
2022-09-22T21:48:41.819Z,23.79
2022-09-22T21:50:41.749Z,23.80
2022-09-22T21:52:42.158Z,23.83
2022-09-22T21:54:41.856Z,23.81
2022-09-22T21:56:42.085Z,23.90
2022-09-22T21:58:41.708Z,23.82
2022-09-22T22:00:51.683Z,23.81
2022-09-22T22:02:41.850Z,23.85
2022-09-22T22:04:42.040Z,23.81
2022-09-22T22:06:41.860Z,23.86
2022-09-22T22:08:41.865Z,23.90
2022-09-22T22:10:41.806Z,23.79
2022-09-22T22:12:41.876Z,23.83
2022-09-22T22:14:41.903Z,23.81
2022-09-22T22:16:41.798Z,23.89
2022-09-22T22:18:41.801Z,23.81
2022-09-22T22:20:41.700Z,23.69
2022-09-22T22:22:41.876Z,23.70
2022-09-22T22:24:41.808Z,23.62
2022-09-22T22:26:41.741Z,23.38
2022-09-22T22:28:41.766Z,23.61
2022-09-22T22:30:41.949Z,23.76
2022-09-22T22:32:41.807Z,23.73
2022-09-22T22:34:41.882Z,23.76
2022-09-22T22:36:41.958Z,23.73
2022-09-22T22:38:41.890Z,23.50
2022-09-22T22:40:41.954Z,23.70
2022-09-22T22:42:41.968Z,23.75
2022-09-22T22:44:41.909Z,23.47
2022-09-22T22:46:42.001Z,23.62
2022-09-22T22:48:41.894Z,23.53
2022-09-22T22:50:41.888Z,23.48
2022-09-22T22:52:41.861Z,23.63
2022-09-22T22:54:41.932Z,23.49
2022-09-22T22:56:42.749Z,23.72
2022-09-22T22:58:41.908Z,23.68
2022-09-22T23:00:41.919Z,23.72
2022-09-22T23:02:41.949Z,23.17
2022-09-22T23:04:41.837Z,23.66
2022-09-22T23:06:41.922Z,23.54
2022-09-22T23:08:41.945Z,23.73
2022-09-22T23:10:41.942Z,23.59
2022-09-22T23:12:41.879Z,23.73
2022-09-22T23:14:41.931Z,23.55
2022-09-22T23:16:41.943Z,23.66
2022-09-22T23:18:41.937Z,23.59
2022-09-22T23:20:41.958Z,23.56
2022-09-22T23:22:41.954Z,23.70
2022-09-22T23:24:41.964Z,23.59
2022-09-22T23:26:41.970Z,23.53
2022-09-22T23:28:41.957Z,23.70
2022-09-22T23:30:42.003Z,23.65
2022-09-22T23:32:41.876Z,23.66
2022-09-22T23:34:41.921Z,23.67
2022-09-22T23:36:41.982Z,23.73
2022-09-22T23:38:42.017Z,23.81
2022-09-22T23:40:42.135Z,23.65
2022-09-22T23:42:41.952Z,23.69
2022-09-22T23:44:41.902Z,23.67
2022-09-22T23:46:42.023Z,23.65
2022-09-22T23:48:41.972Z,23.63
2022-09-22T23:50:41.982Z,23.64
2022-09-22T23:52:41.928Z,23.65
2022-09-22T23:54:41.889Z,23.70
2022-09-22T23:56:41.855Z,23.65
2022-09-22T23:58:41.943Z,23.59
